sensor_id;sensor_type;location;lat;lon;timestamp;P1;durP1;ratioP1;P2;durP2;ratioP2
1721;SDS011;858;53.190;8.596;2022-09-09T00:01:37;15.93;;;13.40;;
1721;SDS011;858;53.190;8.596;2022-09-09T00:04:09;15.43;;;13.82;;
1721;SDS011;858;53.190;8.596;2022-09-09T00:06:43;17.25;;;14.50;;
1721;SDS011;858;53.190;8.596;2022-09-09T00:09:11;21.20;;;15.52;;
1721;SDS011;858;53.190;8.596;2022-09-09T00:11:39;17.85;;;14.60;;
1721;SDS011;858;53.190;8.596;2022-09-09T00:14:10;19.55;;;15.70;;
1721;SDS011;858;53.190;8.596;2022-09-09T00:16:38;19.58;;;16.65;;
1721;SDS011;858;53.190;8.596;2022-09-09T00:19:07;24.60;;;17.23;;
1721;SDS011;858;53.190;8.596;2022-09-09T00:21:37;24.48;;;18.73;;
1721;SDS011;858;53.190;8.596;2022-09-09T00:24:08;26.58;;;19.23;;
1721;SDS011;858;53.190;8.596;2022-09-09T00:26:38;24.13;;;19.27;;
1721;SDS011;858;53.190;8.596;2022-09-09T00:29:05;24.38;;;19.20;;
1721;SDS011;858;53.190;8.596;2022-09-09T00:31:37;23.15;;;18.70;;
1721;SDS011;858;53.190;8.596;2022-09-09T00:34:05;30.70;;;21.20;;
1721;SDS011;858;53.190;8.596;2022-09-09T00:36:35;31.08;;;22.65;;
1721;SDS011;858;53.190;8.596;2022-09-09T00:39:02;31.23;;;22.35;;
1721;SDS011;858;53.190;8.596;2022-09-09T00:41:32;30.83;;;22.17;;
1721;SDS011;858;53.190;8.596;2022-09-09T00:44:10;27.27;;;21.40;;
1721;SDS011;858;53.190;8.596;2022-09-09T00:46:53;28.20;;;20.80;;
1721;SDS011;858;53.190;8.596;2022-09-09T00:49:23;27.77;;;21.90;;
1721;SDS011;858;53.190;8.596;2022-09-09T00:51:52;28.50;;;21.87;;
1721;SDS011;858;53.190;8.596;2022-09-09T00:54:33;29.60;;;22.48;;
1721;SDS011;858;53.190;8.596;2022-09-09T00:57:04;29.58;;;23.02;;
1721;SDS011;858;53.190;8.596;2022-09-09T00:59:34;28.10;;;20.92;;
1721;SDS011;858;53.190;8.596;2022-09-09T01:02:08;28.80;;;22.40;;
1721;SDS011;858;53.190;8.596;2022-09-09T01:04:39;32.63;;;23.27;;
1721;SDS011;858;53.190;8.596;2022-09-09T01:07:09;29.60;;;23.65;;
1721;SDS011;858;53.190;8.596;2022-09-09T01:09:38;30.17;;;23.13;;
1721;SDS011;858;53.190;8.596;2022-09-09T01:12:09;33.38;;;24.08;;
1721;SDS011;858;53.190;8.596;2022-09-09T01:14:40;31.85;;;23.77;;
1721;SDS011;858;53.190;8.596;2022-09-09T01:17:10;35.60;;;23.30;;
1721;SDS011;858;53.190;8.596;2022-09-09T01:19:42;33.03;;;24.60;;
1721;SDS011;858;53.190;8.596;2022-09-09T01:22:11;28.17;;;22.20;;
1721;SDS011;858;53.190;8.596;2022-09-09T01:24:40;32.63;;;24.60;;
1721;SDS011;858;53.190;8.596;2022-09-09T01:27:11;30.40;;;24.02;;
1721;SDS011;858;53.190;8.596;2022-09-09T01:29:38;33.22;;;24.85;;
1721;SDS011;858;53.190;8.596;2022-09-09T01:34:46;30.17;;;24.95;;
1721;SDS011;858;53.190;8.596;2022-09-09T01:37:13;34.13;;;24.60;;
1721;SDS011;858;53.190;8.596;2022-09-09T01:39:40;34.07;;;25.57;;
1721;SDS011;858;53.190;8.596;2022-09-09T01:42:09;32.20;;;26.00;;
1721;SDS011;858;53.190;8.596;2022-09-09T01:44:37;32.60;;;24.17;;
1721;SDS011;858;53.190;8.596;2022-09-09T01:47:04;33.38;;;24.48;;
1721;SDS011;858;53.190;8.596;2022-09-09T01:49:31;34.35;;;24.85;;
1721;SDS011;858;53.190;8.596;2022-09-09T01:51:58;31.58;;;24.65;;
1721;SDS011;858;53.190;8.596;2022-09-09T01:54:26;35.87;;;26.70;;
1721;SDS011;858;53.190;8.596;2022-09-09T01:56:55;34.93;;;25.80;;
1721;SDS011;858;53.190;8.596;2022-09-09T01:59:32;34.10;;;25.42;;
1721;SDS011;858;53.190;8.596;2022-09-09T02:02:11;29.15;;;24.63;;
1721;SDS011;858;53.190;8.596;2022-09-09T02:04:40;33.30;;;24.63;;
1721;SDS011;858;53.190;8.596;2022-09-09T02:07:10;30.30;;;23.25;;
1721;SDS011;858;53.190;8.596;2022-09-09T02:09:40;33.05;;;23.42;;
1721;SDS011;858;53.190;8.596;2022-09-09T02:12:08;33.27;;;24.23;;
1721;SDS011;858;53.190;8.596;2022-09-09T02:14:39;32.08;;;24.65;;
1721;SDS011;858;53.190;8.596;2022-09-09T02:17:08;36.88;;;25.77;;
1721;SDS011;858;53.190;8.596;2022-09-09T02:19:37;36.85;;;25.10;;
1721;SDS011;858;53.190;8.596;2022-09-09T02:22:05;28.90;;;22.98;;
1721;SDS011;858;53.190;8.596;2022-09-09T02:24:32;30.13;;;22.98;;
1721;SDS011;858;53.190;8.596;2022-09-09T02:27:00;31.25;;;23.98;;
1721;SDS011;858;53.190;8.596;2022-09-09T02:29:30;30.80;;;24.02;;
1721;SDS011;858;53.190;8.596;2022-09-09T02:31:57;35.45;;;23.92;;
1721;SDS011;858;53.190;8.596;2022-09-09T02:34:25;30.17;;;23.60;;
1721;SDS011;858;53.190;8.596;2022-09-09T02:36:54;32.63;;;24.07;;
1721;SDS011;858;53.190;8.596;2022-09-09T02:39:21;31.60;;;23.60;;
1721;SDS011;858;53.190;8.596;2022-09-09T02:41:47;31.30;;;22.20;;
1721;SDS011;858;53.190;8.596;2022-09-09T02:44:14;34.15;;;24.17;;
1721;SDS011;858;53.190;8.596;2022-09-09T02:46:52;31.08;;;23.23;;
1721;SDS011;858;53.190;8.596;2022-09-09T02:49:24;25.73;;;21.23;;
1721;SDS011;858;53.190;8.596;2022-09-09T02:51:52;32.13;;;22.87;;
1721;SDS011;858;53.190;8.596;2022-09-09T02:54:23;27.33;;;21.92;;
1721;SDS011;858;53.190;8.596;2022-09-09T02:56:53;30.52;;;23.13;;
1721;SDS011;858;53.190;8.596;2022-09-09T02:59:21;30.17;;;24.08;;
1721;SDS011;858;53.190;8.596;2022-09-09T03:01:49;28.85;;;23.05;;
1721;SDS011;858;53.190;8.596;2022-09-09T03:04:15;29.20;;;23.60;;
1721;SDS011;858;53.190;8.596;2022-09-09T03:06:42;33.40;;;23.85;;
1721;SDS011;858;53.190;8.596;2022-09-09T03:09:08;30.67;;;23.38;;
1721;SDS011;858;53.190;8.596;2022-09-09T03:11:36;28.10;;;22.33;;
1721;SDS011;858;53.190;8.596;2022-09-09T03:14:03;33.13;;;23.27;;
1721;SDS011;858;53.190;8.596;2022-09-09T03:16:30;30.80;;;23.10;;
1721;SDS011;858;53.190;8.596;2022-09-09T03:18:58;28.33;;;22.23;;
1721;SDS011;858;53.190;8.596;2022-09-09T03:21:24;33.35;;;23.13;;
1721;SDS011;858;53.190;8.596;2022-09-09T03:23:50;27.10;;;22.27;;
1721;SDS011;858;53.190;8.596;2022-09-09T03:26:17;29.52;;;22.48;;
1721;SDS011;858;53.190;8.596;2022-09-09T03:28:45;30.58;;;22.40;;
1721;SDS011;858;53.190;8.596;2022-09-09T03:31:11;31.73;;;21.97;;
1721;SDS011;858;53.190;8.596;2022-09-09T03:33:38;32.05;;;22.80;;
1721;SDS011;858;53.190;8.596;2022-09-09T03:36:07;28.17;;;22.50;;
1721;SDS011;858;53.190;8.596;2022-09-09T03:38:35;28.55;;;21.13;;
1721;SDS011;858;53.190;8.596;2022-09-09T03:41:02;28.67;;;21.75;;
1721;SDS011;858;53.190;8.596;2022-09-09T03:43:28;32.72;;;22.77;;
1721;SDS011;858;53.190;8.596;2022-09-09T03:45:56;28.63;;;22.65;;
1721;SDS011;858;53.190;8.596;2022-09-09T03:48:23;29.23;;;21.08;;
1721;SDS011;858;53.190;8.596;2022-09-09T03:50:50;29.02;;;22.30;;
1721;SDS011;858;53.190;8.596;2022-09-09T03:53:18;29.85;;;22.23;;
1721;SDS011;858;53.190;8.596;2022-09-09T03:55:45;31.10;;;22.45;;
1721;SDS011;858;53.190;8.596;2022-09-09T03:58:11;30.60;;;22.57;;
1721;SDS011;858;53.190;8.596;2022-09-09T04:00:38;33.72;;;22.80;;
1721;SDS011;858;53.190;8.596;2022-09-09T04:03:08;26.75;;;21.23;;
1721;SDS011;858;53.190;8.596;2022-09-09T04:05:35;29.45;;;21.67;;
1721;SDS011;858;53.190;8.596;2022-09-09T04:08:04;26.33;;;20.75;;
1721;SDS011;858;53.190;8.596;2022-09-09T04:10:31;27.50;;;22.20;;
1721;SDS011;858;53.190;8.596;2022-09-09T04:12:57;23.98;;;20.40;;
1721;SDS011;858;53.190;8.596;2022-09-09T04:15:24;28.10;;;21.08;;
1721;SDS011;858;53.190;8.596;2022-09-09T04:17:50;26.17;;;20.83;;
1721;SDS011;858;53.190;8.596;2022-09-09T04:20:18;28.35;;;21.33;;
1721;SDS011;858;53.190;8.596;2022-09-09T04:22:45;29.55;;;20.20;;
1721;SDS011;858;53.190;8.596;2022-09-09T04:25:11;26.35;;;19.13;;
1721;SDS011;858;53.190;8.596;2022-09-09T04:27:37;24.98;;;18.35;;
1721;SDS011;858;53.190;8.596;2022-09-09T04:30:04;25.10;;;18.60;;
1721;SDS011;858;53.190;8.596;2022-09-09T04:32:32;20.75;;;18.52;;
1721;SDS011;858;53.190;8.596;2022-09-09T04:34:58;23.75;;;19.10;;
1721;SDS011;858;53.190;8.596;2022-09-09T04:37:26;24.83;;;18.50;;
1721;SDS011;858;53.190;8.596;2022-09-09T04:39:53;25.50;;;19.33;;
1721;SDS011;858;53.190;8.596;2022-09-09T04:42:19;23.77;;;17.80;;
1721;SDS011;858;53.190;8.596;2022-09-09T04:44:46;26.47;;;19.80;;
1721;SDS011;858;53.190;8.596;2022-09-09T04:47:12;25.98;;;18.33;;
1721;SDS011;858;53.190;8.596;2022-09-09T04:49:39;23.65;;;18.88;;
1721;SDS011;858;53.190;8.596;2022-09-09T04:52:06;26.90;;;17.60;;
1721;SDS011;858;53.190;8.596;2022-09-09T04:54:34;25.15;;;17.55;;
1721;SDS011;858;53.190;8.596;2022-09-09T04:57:00;22.53;;;17.50;;
1721;SDS011;858;53.190;8.596;2022-09-09T04:59:27;23.23;;;17.05;;
1721;SDS011;858;53.190;8.596;2022-09-09T05:01:53;29.80;;;17.70;;
1721;SDS011;858;53.190;8.596;2022-09-09T05:04:20;23.27;;;17.10;;
1721;SDS011;858;53.190;8.596;2022-09-09T05:06:47;23.55;;;17.73;;
1721;SDS011;858;53.190;8.596;2022-09-09T05:09:13;21.63;;;16.63;;
1721;SDS011;858;53.190;8.596;2022-09-09T05:11:41;21.70;;;16.17;;
1721;SDS011;858;53.190;8.596;2022-09-09T05:14:08;19.58;;;16.08;;
1721;SDS011;858;53.190;8.596;2022-09-09T05:16:36;18.90;;;15.27;;
1721;SDS011;858;53.190;8.596;2022-09-09T05:19:02;21.05;;;16.92;;
1721;SDS011;858;53.190;8.596;2022-09-09T05:21:29;19.70;;;15.73;;
1721;SDS011;858;53.190;8.596;2022-09-09T05:23:56;19.13;;;15.68;;
1721;SDS011;858;53.190;8.596;2022-09-09T05:26:22;23.38;;;15.60;;
1721;SDS011;858;53.190;8.596;2022-09-09T05:28:51;16.95;;;14.23;;
1721;SDS011;858;53.190;8.596;2022-09-09T05:31:17;20.63;;;15.52;;
1721;SDS011;858;53.190;8.596;2022-09-09T05:33:44;19.35;;;15.18;;
1721;SDS011;858;53.190;8.596;2022-09-09T05:36:12;19.00;;;16.50;;
1721;SDS011;858;53.190;8.596;2022-09-09T05:38:39;25.98;;;15.85;;
1721;SDS011;858;53.190;8.596;2022-09-09T05:41:06;22.90;;;16.42;;
1721;SDS011;858;53.190;8.596;2022-09-09T05:43:33;28.25;;;16.92;;
1721;SDS011;858;53.190;8.596;2022-09-09T05:46:02;26.08;;;17.35;;
1721;SDS011;858;53.190;8.596;2022-09-09T05:48:29;22.85;;;16.83;;
1721;SDS011;858;53.190;8.596;2022-09-09T05:50:57;22.90;;;17.73;;
1721;SDS011;858;53.190;8.596;2022-09-09T05:53:23;20.90;;;17.20;;
1721;SDS011;858;53.190;8.596;2022-09-09T05:55:50;23.73;;;17.60;;
1721;SDS011;858;53.190;8.596;2022-09-09T05:58:17;22.05;;;16.73;;
1721;SDS011;858;53.190;8.596;2022-09-09T06:00:44;23.40;;;16.70;;
1721;SDS011;858;53.190;8.596;2022-09-09T06:03:11;20.33;;;16.40;;
1721;SDS011;858;53.190;8.596;2022-09-09T06:05:38;20.70;;;15.85;;
1721;SDS011;858;53.190;8.596;2022-09-09T06:08:05;24.05;;;15.00;;
1721;SDS011;858;53.190;8.596;2022-09-09T06:10:32;22.25;;;15.23;;
1721;SDS011;858;53.190;8.596;2022-09-09T06:12:59;17.60;;;14.60;;
1721;SDS011;858;53.190;8.596;2022-09-09T06:15:25;22.25;;;14.88;;
1721;SDS011;858;53.190;8.596;2022-09-09T06:17:53;23.08;;;15.68;;
1721;SDS011;858;53.190;8.596;2022-09-09T06:20:21;20.00;;;15.45;;
1721;SDS011;858;53.190;8.596;2022-09-09T06:22:48;17.80;;;14.73;;
1721;SDS011;858;53.190;8.596;2022-09-09T06:25:14;20.53;;;16.90;;
1721;SDS011;858;53.190;8.596;2022-09-09T06:27:40;19.95;;;14.63;;
1721;SDS011;858;53.190;8.596;2022-09-09T06:30:08;19.77;;;15.60;;
1721;SDS011;858;53.190;8.596;2022-09-09T06:32:34;22.45;;;15.70;;
1721;SDS011;858;53.190;8.596;2022-09-09T06:35:03;19.30;;;14.70;;
1721;SDS011;858;53.190;8.596;2022-09-09T06:37:30;16.20;;;13.57;;
1721;SDS011;858;53.190;8.596;2022-09-09T06:39:57;19.98;;;14.20;;
1721;SDS011;858;53.190;8.596;2022-09-09T06:42:23;20.10;;;14.95;;
1721;SDS011;858;53.190;8.596;2022-09-09T06:44:50;19.08;;;14.27;;
1721;SDS011;858;53.190;8.596;2022-09-09T06:47:17;21.30;;;14.50;;
1721;SDS011;858;53.190;8.596;2022-09-09T06:49:43;14.70;;;12.25;;
1721;SDS011;858;53.190;8.596;2022-09-09T06:52:10;17.55;;;12.50;;
1721;SDS011;858;53.190;8.596;2022-09-09T06:54:38;18.33;;;13.25;;
1721;SDS011;858;53.190;8.596;2022-09-09T06:57:04;12.57;;;11.10;;
1721;SDS011;858;53.190;8.596;2022-09-09T06:59:32;14.38;;;11.60;;
1721;SDS011;858;53.190;8.596;2022-09-09T07:01:58;12.10;;;10.80;;
1721;SDS011;858;53.190;8.596;2022-09-09T07:04:24;14.18;;;11.48;;
1721;SDS011;858;53.190;8.596;2022-09-09T07:06:51;13.05;;;10.88;;
1721;SDS011;858;53.190;8.596;2022-09-09T07:09:17;13.63;;;11.60;;
1721;SDS011;858;53.190;8.596;2022-09-09T07:11:46;11.18;;;9.65;;
1721;SDS011;858;53.190;8.596;2022-09-09T07:14:12;18.45;;;10.23;;
1721;SDS011;858;53.190;8.596;2022-09-09T07:16:39;10.65;;;9.15;;
1721;SDS011;858;53.190;8.596;2022-09-09T07:19:05;12.75;;;9.93;;
1721;SDS011;858;53.190;8.596;2022-09-09T07:21:32;10.82;;;9.65;;
1721;SDS011;858;53.190;8.596;2022-09-09T07:23:59;10.77;;;9.35;;
1721;SDS011;858;53.190;8.596;2022-09-09T07:26:27;10.75;;;8.00;;
1721;SDS011;858;53.190;8.596;2022-09-09T07:28:55;12.05;;;8.60;;
1721;SDS011;858;53.190;8.596;2022-09-09T07:31:23;8.70;;;6.90;;
1721;SDS011;858;53.190;8.596;2022-09-09T07:33:50;8.10;;;7.30;;
1721;SDS011;858;53.190;8.596;2022-09-09T07:36:17;8.97;;;8.07;;
1721;SDS011;858;53.190;8.596;2022-09-09T07:38:46;8.55;;;6.88;;
1721;SDS011;858;53.190;8.596;2022-09-09T07:41:13;7.50;;;6.03;;
1721;SDS011;858;53.190;8.596;2022-09-09T07:43:40;7.20;;;6.25;;
1721;SDS011;858;53.190;8.596;2022-09-09T07:46:08;7.00;;;5.90;;
1721;SDS011;858;53.190;8.596;2022-09-09T07:48:35;8.73;;;6.22;;
1721;SDS011;858;53.190;8.596;2022-09-09T07:51:06;8.32;;;5.85;;
1721;SDS011;858;53.190;8.596;2022-09-09T07:53:32;7.00;;;5.30;;
1721;SDS011;858;53.190;8.596;2022-09-09T07:56:02;6.47;;;5.20;;
1721;SDS011;858;53.190;8.596;2022-09-09T07:58:28;6.25;;;4.35;;
1721;SDS011;858;53.190;8.596;2022-09-09T08:00:54;5.20;;;4.20;;
1721;SDS011;858;53.190;8.596;2022-09-09T08:03:24;6.03;;;4.80;;
1721;SDS011;858;53.190;8.596;2022-09-09T08:05:50;7.45;;;4.70;;
1721;SDS011;858;53.190;8.596;2022-09-09T08:08:16;6.00;;;4.40;;
1721;SDS011;858;53.190;8.596;2022-09-09T08:10:43;6.53;;;5.20;;
1721;SDS011;858;53.190;8.596;2022-09-09T08:13:09;8.18;;;5.95;;
1721;SDS011;858;53.190;8.596;2022-09-09T08:15:38;8.18;;;6.40;;
1721;SDS011;858;53.190;8.596;2022-09-09T08:18:06;8.38;;;6.70;;
1721;SDS011;858;53.190;8.596;2022-09-09T08:20:33;11.40;;;6.80;;
1721;SDS011;858;53.190;8.596;2022-09-09T08:23:01;11.75;;;7.50;;
1721;SDS011;858;53.190;8.596;2022-09-09T08:25:27;8.40;;;6.10;;
1721;SDS011;858;53.190;8.596;2022-09-09T08:27:54;8.27;;;7.00;;
1721;SDS011;858;53.190;8.596;2022-09-09T08:30:21;8.75;;;6.90;;
1721;SDS011;858;53.190;8.596;2022-09-09T08:32:48;8.10;;;6.80;;
1721;SDS011;858;53.190;8.596;2022-09-09T08:35:16;11.02;;;7.03;;
1721;SDS011;858;53.190;8.596;2022-09-09T08:37:44;12.02;;;7.38;;
1721;SDS011;858;53.190;8.596;2022-09-09T08:40:11;9.75;;;6.85;;
1721;SDS011;858;53.190;8.596;2022-09-09T08:42:43;10.60;;;7.15;;
1721;SDS011;858;53.190;8.596;2022-09-09T08:45:15;8.55;;;7.43;;
1721;SDS011;858;53.190;8.596;2022-09-09T08:47:48;11.80;;;8.00;;
1721;SDS011;858;53.190;8.596;2022-09-09T08:50:19;9.40;;;7.97;;
1721;SDS011;858;53.190;8.596;2022-09-09T08:52:50;9.20;;;8.10;;
1721;SDS011;858;53.190;8.596;2022-09-09T08:55:20;8.25;;;7.50;;
1721;SDS011;858;53.190;8.596;2022-09-09T08:57:48;7.93;;;7.10;;
1721;SDS011;858;53.190;8.596;2022-09-09T09:00:17;9.10;;;8.30;;
1721;SDS011;858;53.190;8.596;2022-09-09T09:02:45;10.98;;;8.50;;
1721;SDS011;858;53.190;8.596;2022-09-09T09:05:17;8.47;;;7.63;;
1721;SDS011;858;53.190;8.596;2022-09-09T09:07:53;9.70;;;8.45;;
1721;SDS011;858;53.190;8.596;2022-09-09T09:10:24;10.00;;;8.60;;
1721;SDS011;858;53.190;8.596;2022-09-09T09:12:55;11.30;;;10.30;;
1721;SDS011;858;53.190;8.596;2022-09-09T09:15:23;10.30;;;9.50;;
1721;SDS011;858;53.190;8.596;2022-09-09T09:17:50;11.30;;;10.30;;
1721;SDS011;858;53.190;8.596;2022-09-09T09:20:18;11.20;;;10.20;;
1721;SDS011;858;53.190;8.596;2022-09-09T09:22:47;11.45;;;10.35;;
1721;SDS011;858;53.190;8.596;2022-09-09T09:25:17;12.20;;;11.20;;
1721;SDS011;858;53.190;8.596;2022-09-09T09:27:46;12.90;;;11.60;;
1721;SDS011;858;53.190;8.596;2022-09-09T09:30:15;11.00;;;9.90;;
1721;SDS011;858;53.190;8.596;2022-09-09T09:32:43;12.60;;;9.93;;
1721;SDS011;858;53.190;8.596;2022-09-09T09:35:11;10.13;;;9.20;;
1721;SDS011;858;53.190;8.596;2022-09-09T09:37:39;11.10;;;9.98;;
1721;SDS011;858;53.190;8.596;2022-09-09T09:40:09;9.95;;;9.00;;
1721;SDS011;858;53.190;8.596;2022-09-09T09:42:38;9.40;;;8.25;;
1721;SDS011;858;53.190;8.596;2022-09-09T09:45:14;11.00;;;8.60;;
1721;SDS011;858;53.190;8.596;2022-09-09T09:47:43;7.90;;;7.30;;
1721;SDS011;858;53.190;8.596;2022-09-09T09:50:15;8.65;;;7.60;;
1721;SDS011;858;53.190;8.596;2022-09-09T09:52:42;6.22;;;5.63;;
1721;SDS011;858;53.190;8.596;2022-09-09T09:55:11;7.18;;;5.80;;
1721;SDS011;858;53.190;8.596;2022-09-09T09:57:40;10.10;;;5.60;;
1721;SDS011;858;53.190;8.596;2022-09-09T10:00:12;6.53;;;5.03;;
1721;SDS011;858;53.190;8.596;2022-09-09T10:02:40;6.00;;;5.00;;
1721;SDS011;858;53.190;8.596;2022-09-09T10:05:13;6.67;;;4.90;;
1721;SDS011;858;53.190;8.596;2022-09-09T10:07:39;5.97;;;3.83;;
1721;SDS011;858;53.190;8.596;2022-09-09T10:10:09;6.43;;;4.18;;
1721;SDS011;858;53.190;8.596;2022-09-09T10:12:42;5.82;;;3.97;;
1721;SDS011;858;53.190;8.596;2022-09-09T10:15:16;5.73;;;3.90;;
1721;SDS011;858;53.190;8.596;2022-09-09T10:17:53;5.93;;;4.07;;
1721;SDS011;858;53.190;8.596;2022-09-09T10:20:24;6.95;;;4.10;;
1721;SDS011;858;53.190;8.596;2022-09-09T10:22:54;8.30;;;4.38;;
1721;SDS011;858;53.190;8.596;2022-09-09T10:25:35;6.63;;;4.97;;
1721;SDS011;858;53.190;8.596;2022-09-09T10:28:14;6.80;;;5.20;;
1721;SDS011;858;53.190;8.596;2022-09-09T10:30:44;6.65;;;5.10;;
1721;SDS011;858;53.190;8.596;2022-09-09T10:33:15;7.68;;;4.93;;
1721;SDS011;858;53.190;8.596;2022-09-09T10:35:47;7.45;;;5.07;;
1721;SDS011;858;53.190;8.596;2022-09-09T10:38:17;7.32;;;5.28;;
1721;SDS011;858;53.190;8.596;2022-09-09T10:40:46;7.82;;;4.85;;
1721;SDS011;858;53.190;8.596;2022-09-09T10:43:26;6.00;;;5.18;;
1721;SDS011;858;53.190;8.596;2022-09-09T10:45:57;8.68;;;5.93;;
1721;SDS011;858;53.190;8.596;2022-09-09T10:48:31;5.25;;;4.80;;
1721;SDS011;858;53.190;8.596;2022-09-09T10:51:01;6.90;;;5.50;;
1721;SDS011;858;53.190;8.596;2022-09-09T10:53:36;6.72;;;5.40;;
1721;SDS011;858;53.190;8.596;2022-09-09T10:56:05;8.13;;;5.32;;
1721;SDS011;858;53.190;8.596;2022-09-09T10:58:35;9.48;;;5.85;;
1721;SDS011;858;53.190;8.596;2022-09-09T11:01:06;8.93;;;6.38;;
1721;SDS011;858;53.190;8.596;2022-09-09T11:03:34;6.82;;;6.10;;
1721;SDS011;858;53.190;8.596;2022-09-09T11:06:04;6.53;;;5.47;;
1721;SDS011;858;53.190;8.596;2022-09-09T11:08:32;7.18;;;6.50;;
1721;SDS011;858;53.190;8.596;2022-09-09T11:11:02;9.05;;;7.03;;
1721;SDS011;858;53.190;8.596;2022-09-09T11:13:30;7.22;;;6.50;;
1721;SDS011;858;53.190;8.596;2022-09-09T11:16:01;9.27;;;6.50;;
1721;SDS011;858;53.190;8.596;2022-09-09T11:18:31;7.90;;;6.20;;
1721;SDS011;858;53.190;8.596;2022-09-09T11:21:00;6.38;;;5.72;;
1721;SDS011;858;53.190;8.596;2022-09-09T11:23:30;6.20;;;5.70;;
1721;SDS011;858;53.190;8.596;2022-09-09T11:25:59;7.97;;;6.40;;
1721;SDS011;858;53.190;8.596;2022-09-09T11:28:32;7.03;;;6.30;;
1721;SDS011;858;53.190;8.596;2022-09-09T11:31:07;8.35;;;7.53;;
1721;SDS011;858;53.190;8.596;2022-09-09T11:36:33;9.00;;;7.95;;
1721;SDS011;858;53.190;8.596;2022-09-09T11:39:05;9.95;;;7.70;;
1721;SDS011;858;53.190;8.596;2022-09-09T11:41:36;12.23;;;8.03;;
1721;SDS011;858;53.190;8.596;2022-09-09T11:44:09;7.97;;;6.82;;
1721;SDS011;858;53.190;8.596;2022-09-09T11:46:38;9.40;;;6.20;;
1721;SDS011;858;53.190;8.596;2022-09-09T11:49:21;6.72;;;6.10;;
1721;SDS011;858;53.190;8.596;2022-09-09T11:51:51;7.63;;;5.70;;
1721;SDS011;858;53.190;8.596;2022-09-09T11:54:28;6.85;;;5.32;;
1721;SDS011;858;53.190;8.596;2022-09-09T11:56:55;7.25;;;5.50;;
1721;SDS011;858;53.190;8.596;2022-09-09T11:59:22;8.45;;;4.88;;
1721;SDS011;858;53.190;8.596;2022-09-09T12:01:53;8.05;;;5.70;;
1721;SDS011;858;53.190;8.596;2022-09-09T12:04:26;7.55;;;5.03;;
1721;SDS011;858;53.190;8.596;2022-09-09T12:06:54;8.70;;;5.13;;
1721;SDS011;858;53.190;8.596;2022-09-09T12:09:23;8.93;;;5.20;;
1721;SDS011;858;53.190;8.596;2022-09-09T12:11:51;15.45;;;5.45;;
1721;SDS011;858;53.190;8.596;2022-09-09T12:14:19;10.80;;;6.30;;
1721;SDS011;858;53.190;8.596;2022-09-09T12:16:47;7.63;;;5.70;;
1721;SDS011;858;53.190;8.596;2022-09-09T12:19:18;8.60;;;6.22;;
1721;SDS011;858;53.190;8.596;2022-09-09T12:21:47;10.10;;;6.60;;
1721;SDS011;858;53.190;8.596;2022-09-09T12:24:16;7.28;;;6.57;;
1721;SDS011;858;53.190;8.596;2022-09-09T12:26:47;9.75;;;6.45;;
1721;SDS011;858;53.190;8.596;2022-09-09T12:29:21;9.80;;;6.53;;
1721;SDS011;858;53.190;8.596;2022-09-09T12:31:51;8.80;;;6.30;;
1721;SDS011;858;53.190;8.596;2022-09-09T12:34:25;9.27;;;6.70;;
1721;SDS011;858;53.190;8.596;2022-09-09T12:36:55;11.25;;;6.45;;
1721;SDS011;858;53.190;8.596;2022-09-09T12:39:27;9.02;;;6.80;;
1721;SDS011;858;53.190;8.596;2022-09-09T12:41:55;8.15;;;6.60;;
1721;SDS011;858;53.190;8.596;2022-09-09T12:44:22;8.65;;;6.90;;
1721;SDS011;858;53.190;8.596;2022-09-09T12:46:49;8.90;;;7.53;;
1721;SDS011;858;53.190;8.596;2022-09-09T12:49:26;11.18;;;6.70;;
1721;SDS011;858;53.190;8.596;2022-09-09T12:51:52;8.88;;;5.80;;
1721;SDS011;858;53.190;8.596;2022-09-09T12:54:19;9.30;;;6.40;;
1721;SDS011;858;53.190;8.596;2022-09-09T12:56:46;7.90;;;4.50;;
1721;SDS011;858;53.190;8.596;2022-09-09T12:59:17;5.60;;;4.57;;
1721;SDS011;858;53.190;8.596;2022-09-09T13:01:54;7.35;;;5.18;;
1721;SDS011;858;53.190;8.596;2022-09-09T13:04:21;5.68;;;3.80;;
1721;SDS011;858;53.190;8.596;2022-09-09T13:06:49;5.80;;;3.70;;
1721;SDS011;858;53.190;8.596;2022-09-09T13:09:17;5.20;;;3.30;;
1721;SDS011;858;53.190;8.596;2022-09-09T13:11:44;4.18;;;2.83;;
1721;SDS011;858;53.190;8.596;2022-09-09T13:14:13;5.78;;;3.25;;
1721;SDS011;858;53.190;8.596;2022-09-09T13:16:53;9.55;;;3.65;;
1721;SDS011;858;53.190;8.596;2022-09-09T13:19:20;9.07;;;4.93;;
1721;SDS011;858;53.190;8.596;2022-09-09T13:21:47;9.35;;;5.47;;
1721;SDS011;858;53.190;8.596;2022-09-09T13:24:30;10.55;;;6.05;;
1721;SDS011;858;53.190;8.596;2022-09-09T13:26:56;13.68;;;8.50;;
1721;SDS011;858;53.190;8.596;2022-09-09T13:29:23;18.25;;;9.07;;
1721;SDS011;858;53.190;8.596;2022-09-09T13:31:50;14.80;;;9.60;;
1721;SDS011;858;53.190;8.596;2022-09-09T13:34:28;11.47;;;5.80;;
1721;SDS011;858;53.190;8.596;2022-09-09T13:36:55;8.77;;;5.60;;
1721;SDS011;858;53.190;8.596;2022-09-09T13:39:24;7.10;;;4.73;;
1721;SDS011;858;53.190;8.596;2022-09-09T13:41:51;5.50;;;3.20;;
1721;SDS011;858;53.190;8.596;2022-09-09T13:44:20;7.93;;;3.97;;
1721;SDS011;858;53.190;8.596;2022-09-09T13:46:58;6.20;;;4.03;;
1721;SDS011;858;53.190;8.596;2022-09-09T13:49:26;5.18;;;4.00;;
1721;SDS011;858;53.190;8.596;2022-09-09T13:52:02;6.63;;;4.10;;
1721;SDS011;858;53.190;8.596;2022-09-09T13:54:29;8.13;;;4.60;;
1721;SDS011;858;53.190;8.596;2022-09-09T13:56:57;5.38;;;4.00;;
1721;SDS011;858;53.190;8.596;2022-09-09T13:59:24;6.30;;;4.30;;
1721;SDS011;858;53.190;8.596;2022-09-09T14:01:51;7.68;;;5.10;;
1721;SDS011;858;53.190;8.596;2022-09-09T14:04:17;7.60;;;5.10;;
1721;SDS011;858;53.190;8.596;2022-09-09T14:06:45;8.20;;;5.60;;
1721;SDS011;858;53.190;8.596;2022-09-09T14:09:12;7.43;;;5.65;;
1721;SDS011;858;53.190;8.596;2022-09-09T14:11:40;8.00;;;6.05;;
1721;SDS011;858;53.190;8.596;2022-09-09T14:14:08;8.48;;;6.07;;
1721;SDS011;858;53.190;8.596;2022-09-09T14:16:34;8.00;;;5.80;;
1721;SDS011;858;53.190;8.596;2022-09-09T14:19:01;11.15;;;6.43;;
1721;SDS011;858;53.190;8.596;2022-09-09T14:21:28;11.47;;;7.20;;
1721;SDS011;858;53.190;8.596;2022-09-09T14:23:54;9.63;;;7.38;;
1721;SDS011;858;53.190;8.596;2022-09-09T14:26:23;9.95;;;8.00;;
1721;SDS011;858;53.190;8.596;2022-09-09T14:28:50;10.00;;;8.05;;
1721;SDS011;858;53.190;8.596;2022-09-09T14:31:18;12.10;;;8.98;;
1721;SDS011;858;53.190;8.596;2022-09-09T14:33:44;10.55;;;8.48;;
1721;SDS011;858;53.190;8.596;2022-09-09T14:36:11;12.27;;;10.07;;
1721;SDS011;858;53.190;8.596;2022-09-09T14:38:38;13.77;;;10.15;;
1721;SDS011;858;53.190;8.596;2022-09-09T14:41:04;14.45;;;10.68;;
1721;SDS011;858;53.190;8.596;2022-09-09T14:43:31;13.13;;;11.32;;
1721;SDS011;858;53.190;8.596;2022-09-09T14:45:57;13.68;;;11.57;;
1721;SDS011;858;53.190;8.596;2022-09-09T14:48:25;16.77;;;12.55;;
1721;SDS011;858;53.190;8.596;2022-09-09T14:50:52;16.90;;;12.60;;
1721;SDS011;858;53.190;8.596;2022-09-09T14:53:18;16.27;;;13.10;;
1721;SDS011;858;53.190;8.596;2022-09-09T14:55:46;16.75;;;13.57;;
1721;SDS011;858;53.190;8.596;2022-09-09T14:58:13;19.40;;;13.57;;
1721;SDS011;858;53.190;8.596;2022-09-09T15:00:39;18.15;;;13.52;;
1721;SDS011;858;53.190;8.596;2022-09-09T15:03:06;15.75;;;14.00;;
1721;SDS011;858;53.190;8.596;2022-09-09T15:05:34;17.88;;;13.95;;
1721;SDS011;858;53.190;8.596;2022-09-09T15:08:02;16.10;;;13.80;;
1721;SDS011;858;53.190;8.596;2022-09-09T15:10:28;18.92;;;14.95;;
1721;SDS011;858;53.190;8.596;2022-09-09T15:12:56;17.43;;;13.90;;
1721;SDS011;858;53.190;8.596;2022-09-09T15:15:22;17.25;;;15.55;;
1721;SDS011;858;53.190;8.596;2022-09-09T15:17:49;18.95;;;16.90;;
1721;SDS011;858;53.190;8.596;2022-09-09T15:20:15;18.85;;;16.00;;
1721;SDS011;858;53.190;8.596;2022-09-09T15:22:43;18.08;;;16.08;;
1721;SDS011;858;53.190;8.596;2022-09-09T15:25:10;18.30;;;16.40;;
1721;SDS011;858;53.190;8.596;2022-09-09T15:27:37;19.70;;;15.38;;